createdAt,value
2022-10-07T00:01:01.216Z,10.10
2022-10-07T00:03:29.258Z,10.10
2022-10-07T00:06:26.821Z,10.20
2022-10-07T00:08:54.328Z,10.20
2022-10-07T00:11:24.479Z,13.10
2022-10-07T00:13:56.102Z,12.00
2022-10-07T00:16:33.396Z,11.10
2022-10-07T00:19:03.516Z,10.20
2022-10-07T00:21:33.617Z,10.20
2022-10-07T00:24:01.364Z,10.60
2022-10-07T00:26:32.298Z,10.20
2022-10-07T00:28:59.453Z,10.20
2022-10-07T00:31:32.673Z,12.60
2022-10-07T00:33:59.940Z,11.60
2022-10-07T00:36:37.310Z,10.20
2022-10-07T00:39:10.600Z,11.40
2022-10-07T00:41:44.732Z,13.00
2022-10-07T00:44:36.620Z,12.90
2022-10-07T00:47:27.021Z,10.20
2022-10-07T00:50:17.244Z,10.20
2022-10-07T00:52:58.076Z,10.30
2022-10-07T00:55:27.511Z,10.30
2022-10-07T00:57:59.289Z,10.30
2022-10-07T01:00:26.365Z,12.30
2022-10-07T01:02:53.374Z,10.30
2022-10-07T01:05:20.798Z,10.30
2022-10-07T01:07:49.211Z,10.40
2022-10-07T01:10:20.200Z,10.40
2022-10-07T01:13:03.464Z,10.70
2022-10-07T01:16:04.339Z,10.40
2022-10-07T01:18:42.481Z,10.40
2022-10-07T01:21:32.864Z,10.50
2022-10-07T01:24:50.046Z,10.50
2022-10-07T01:27:20.641Z,10.50
2022-10-07T01:30:05.283Z,11.20
2022-10-07T01:32:44.434Z,10.50
2022-10-07T01:35:24.802Z,10.50
2022-10-07T01:37:57.083Z,10.60
2022-10-07T01:40:33.634Z,10.60
2022-10-07T01:43:01.184Z,10.60
2022-10-07T01:45:31.087Z,10.10
2022-10-07T01:47:59.314Z,10.50
2022-10-07T01:50:29.716Z,11.70
2022-10-07T01:53:12.885Z,12.30
2022-10-07T01:56:11.942Z,10.70
2022-10-07T01:59:27.147Z,10.70
2022-10-07T02:02:12.595Z,10.70
2022-10-07T02:04:59.174Z,10.70
2022-10-07T02:07:59.579Z,10.70
2022-10-07T02:11:05.592Z,10.70
2022-10-07T02:13:43.185Z,10.70
2022-10-07T02:16:19.056Z,10.80
2022-10-07T02:18:51.804Z,10.70
2022-10-07T02:21:28.153Z,10.70
2022-10-07T02:23:56.840Z,13.70
2022-10-07T02:26:27.363Z,10.60
2022-10-07T02:28:57.213Z,11.50
2022-10-07T02:31:30.448Z,10.60
2022-10-07T02:33:59.402Z,10.60
2022-10-07T02:36:41.577Z,10.60
2022-10-07T02:39:08.945Z,10.60
2022-10-07T02:42:05.203Z,12.10
2022-10-07T02:44:51.986Z,10.60
2022-10-07T02:47:32.011Z,10.60
2022-10-07T02:50:03.529Z,10.60
2022-10-07T02:52:32.512Z,10.60
2022-10-07T02:55:10.529Z,13.40
2022-10-07T02:57:48.455Z,10.50
2022-10-07T03:00:16.950Z,10.50
2022-10-07T03:02:51.617Z,10.50
2022-10-07T03:05:19.977Z,10.50
2022-10-07T03:07:50.147Z,13.00
2022-10-07T03:10:17.424Z,10.50
2022-10-07T03:12:45.437Z,11.80
2022-10-07T03:15:12.320Z,11.50
2022-10-07T03:17:40.616Z,13.50
2022-10-07T03:20:09.514Z,10.60
2022-10-07T03:22:36.761Z,10.60
2022-10-07T03:25:05.177Z,13.20
2022-10-07T03:27:32.083Z,10.60
2022-10-07T03:29:58.965Z,12.60
2022-10-07T03:32:29.180Z,10.50
2022-10-07T03:34:56.087Z,12.00
2022-10-07T03:37:24.260Z,10.50
2022-10-07T03:39:52.670Z,10.50
2022-10-07T03:42:20.982Z,10.50
2022-10-07T03:44:50.016Z,11.20
2022-10-07T03:47:17.549Z,11.60
2022-10-07T03:49:45.024Z,10.50
2022-10-07T03:52:12.078Z,10.50
2022-10-07T03:54:39.313Z,10.40
2022-10-07T03:57:26.211Z,10.40
2022-10-07T03:59:53.607Z,10.40
2022-10-07T04:02:24.710Z,10.40
2022-10-07T04:04:52.718Z,10.40
2022-10-07T04:07:23.087Z,10.40
2022-10-07T04:09:50.088Z,10.50
2022-10-07T04:12:17.133Z,10.40
2022-10-07T04:14:44.091Z,10.30
2022-10-07T04:17:11.132Z,10.30
2022-10-07T04:19:38.190Z,10.30
2022-10-07T04:22:08.956Z,10.30
2022-10-07T04:24:36.571Z,10.30
2022-10-07T04:27:05.084Z,10.20
2022-10-07T04:29:38.207Z,10.20
2022-10-07T04:32:06.646Z,10.20
2022-10-07T04:34:33.558Z,10.20
2022-10-07T04:37:01.375Z,10.20
2022-10-07T04:39:49.002Z,12.40
2022-10-07T04:42:33.716Z,11.20
2022-10-07T04:45:00.627Z,12.70
2022-10-07T04:47:27.573Z,10.00
2022-10-07T04:49:55.111Z,11.40
2022-10-07T04:52:22.050Z,11.50
2022-10-07T04:54:49.120Z,10.00
2022-10-07T04:57:16.320Z,11.60
2022-10-07T04:59:44.610Z,10.10
2022-10-07T05:02:11.957Z,10.10
2022-10-07T05:04:38.908Z,10.90
2022-10-07T05:07:05.787Z,10.10
2022-10-07T05:09:32.661Z,12.80
2022-10-07T05:11:59.612Z,10.10
2022-10-07T05:14:26.559Z,10.00
2022-10-07T05:16:54.045Z,10.00
2022-10-07T05:19:20.995Z,10.00
2022-10-07T05:21:47.939Z,9.90
2022-10-07T05:24:15.026Z,12.50
2022-10-07T05:26:41.990Z,10.90
2022-10-07T05:29:09.764Z,9.90
2022-10-07T05:31:36.670Z,9.80
2022-10-07T05:34:03.642Z,9.80
2022-10-07T05:36:30.575Z,9.80
2022-10-07T05:38:58.187Z,12.60
2022-10-07T05:41:28.110Z,9.80
2022-10-07T05:43:55.263Z,12.50
2022-10-07T05:46:23.733Z,9.70
2022-10-07T05:48:52.867Z,9.70
2022-10-07T05:51:22.290Z,11.10
2022-10-07T05:53:49.352Z,9.70
2022-10-07T05:56:22.217Z,9.70
2022-10-07T05:58:50.555Z,12.00
2022-10-07T06:01:22.048Z,9.80
2022-10-07T06:03:52.435Z,11.10
2022-10-07T06:06:20.404Z,9.80
2022-10-07T06:08:48.278Z,9.90
2022-10-07T06:11:35.850Z,12.90
2022-10-07T06:14:03.353Z,12.90
2022-10-07T06:16:30.356Z,9.90
2022-10-07T06:18:57.489Z,13.10
2022-10-07T06:21:28.041Z,11.50
2022-10-07T06:23:56.766Z,10.10
2022-10-07T06:26:23.809Z,11.40
2022-10-07T06:28:50.966Z,10.10
2022-10-07T06:31:25.839Z,10.20
2022-10-07T06:33:53.103Z,10.20
2022-10-07T06:36:20.746Z,10.20
2022-10-07T06:38:50.082Z,11.50
2022-10-07T06:41:17.762Z,10.40
2022-10-07T06:43:44.809Z,12.00
2022-10-07T06:46:18.795Z,13.50
2022-10-07T06:48:46.807Z,10.50
2022-10-07T06:51:19.631Z,10.60
2022-10-07T06:53:51.710Z,10.60
2022-10-07T06:56:18.767Z,11.50
2022-10-07T06:58:45.668Z,11.30
2022-10-07T07:01:13.181Z,10.80
2022-10-07T07:03:40.561Z,11.90
2022-10-07T07:06:09.919Z,10.90
2022-10-07T07:08:37.195Z,12.00
2022-10-07T07:11:33.120Z,13.80
2022-10-07T07:14:01.482Z,12.20
2022-10-07T07:16:28.930Z,11.10
2022-10-07T07:18:59.194Z,11.10
2022-10-07T07:21:28.734Z,11.40
2022-10-07T07:23:56.564Z,14.10
2022-10-07T07:26:23.817Z,12.20
2022-10-07T07:29:02.197Z,14.20
2022-10-07T07:31:32.354Z,11.70
2022-10-07T07:34:03.263Z,11.70
2022-10-07T07:36:31.932Z,11.80
2022-10-07T07:39:03.971Z,11.80
2022-10-07T07:41:35.473Z,12.30
2022-10-07T07:44:05.796Z,12.00
2022-10-07T07:46:38.368Z,15.30
2022-10-07T07:49:06.373Z,13.90
2022-10-07T07:51:33.782Z,14.10
2022-10-07T07:54:00.670Z,14.30
2022-10-07T07:56:29.190Z,15.10
2022-10-07T07:58:56.720Z,14.80
2022-10-07T08:01:23.754Z,13.80
2022-10-07T08:03:51.312Z,14.10
2022-10-07T08:06:21.486Z,13.60
2022-10-07T08:08:49.067Z,15.90
2022-10-07T08:11:18.983Z,14.60
2022-10-07T08:13:47.293Z,15.10
2022-10-07T08:16:20.480Z,14.30
2022-10-07T08:18:50.142Z,13.90
2022-10-07T08:21:20.310Z,15.70
2022-10-07T08:23:48.047Z,14.10
2022-10-07T08:26:15.587Z,13.20
2022-10-07T08:28:42.757Z,13.30
2022-10-07T08:31:14.296Z,16.00
2022-10-07T08:33:45.036Z,15.00
2022-10-07T08:36:16.139Z,14.70
2022-10-07T08:38:51.448Z,15.10
2022-10-07T08:42:03.530Z,13.70
2022-10-07T08:44:37.435Z,13.80
2022-10-07T08:47:21.797Z,14.40
2022-10-07T08:50:18.933Z,14.10
2022-10-07T08:52:53.655Z,14.20
2022-10-07T08:55:42.450Z,14.30
2022-10-07T08:58:44.029Z,15.20
2022-10-07T09:01:45.544Z,14.50
2022-10-07T09:04:33.112Z,14.50
2022-10-07T09:07:13.477Z,14.70
2022-10-07T09:09:53.868Z,14.80
2022-10-07T09:13:17.939Z,15.00
2022-10-07T09:16:00.341Z,15.30
2022-10-07T09:18:35.061Z,15.60
2022-10-07T09:21:26.159Z,15.90
2022-10-07T09:23:57.506Z,16.10
2022-10-07T09:26:27.322Z,17.10
2022-10-07T09:28:54.381Z,16.50
2022-10-07T09:31:24.331Z,17.50
2022-10-07T09:33:52.979Z,17.30
2022-10-07T09:36:20.232Z,17.00
2022-10-07T09:38:52.326Z,17.10
2022-10-07T09:41:22.372Z,17.30
2022-10-07T09:44:17.268Z,18.50
2022-10-07T09:46:54.420Z,17.60
2022-10-07T09:49:27.108Z,17.80
2022-10-07T09:52:07.057Z,17.80
2022-10-07T09:54:37.325Z,17.90
2022-10-07T09:57:05.865Z,18.00
2022-10-07T09:59:34.767Z,18.20
2022-10-07T10:02:13.620Z,19.20
2022-10-07T10:04:52.758Z,18.00
2022-10-07T10:07:30.706Z,18.00
2022-10-07T10:10:04.607Z,18.20
2022-10-07T10:12:42.117Z,17.90
2022-10-07T10:15:39.463Z,17.80
2022-10-07T10:18:31.265Z,15.30
2022-10-07T10:21:25.200Z,17.60
2022-10-07T10:23:57.136Z,17.60
2022-10-07T10:26:56.404Z,17.50
2022-10-07T10:29:40.376Z,17.50
2022-10-07T10:32:45.280Z,18.30
2022-10-07T10:35:32.256Z,17.40
2022-10-07T10:38:36.243Z,17.40
2022-10-07T10:41:37.699Z,17.40
2022-10-07T10:44:32.727Z,17.50
2022-10-07T10:47:20.548Z,17.50
2022-10-07T10:50:16.352Z,17.60
2022-10-07T10:53:07.568Z,17.70
2022-10-07T10:56:07.586Z,17.80
2022-10-07T10:58:53.342Z,17.90
2022-10-07T11:01:36.964Z,18.00
2022-10-07T11:04:38.374Z,18.00
2022-10-07T11:07:18.491Z,18.10
2022-10-07T11:10:49.682Z,19.20
2022-10-07T11:13:58.781Z,18.40
2022-10-07T11:16:38.851Z,18.50
2022-10-07T11:19:38.986Z,18.50
2022-10-07T11:22:16.420Z,18.70
2022-10-07T11:24:50.899Z,19.70
2022-10-07T11:27:32.725Z,19.30
2022-10-07T11:30:11.193Z,19.10
2022-10-07T11:33:02.720Z,19.20
2022-10-07T11:35:47.355Z,19.20
2022-10-07T11:38:20.475Z,19.20
2022-10-07T11:40:59.136Z,19.20
2022-10-07T11:43:33.254Z,19.20
2022-10-07T11:46:33.260Z,19.20
2022-10-07T11:49:14.851Z,19.30
2022-10-07T11:52:05.903Z,19.40
2022-10-07T11:54:49.030Z,20.00
2022-10-07T11:57:25.051Z,19.40
2022-10-07T12:00:00.466Z,19.60
2022-10-07T12:02:30.417Z,19.50
2022-10-07T12:05:02.234Z,19.80
2022-10-07T12:07:35.085Z,19.70
2022-10-07T12:10:01.894Z,19.70
2022-10-07T12:12:47.382Z,20.30
2022-10-07T12:15:42.281Z,19.80
2022-10-07T12:18:10.477Z,19.80
2022-10-07T12:20:53.009Z,19.80
2022-10-07T12:23:20.346Z,18.70
2022-10-07T12:25:53.118Z,20.10
2022-10-07T12:28:48.835Z,19.90
2022-10-07T12:31:15.774Z,20.00
2022-10-07T12:33:45.367Z,19.90
2022-10-07T12:36:21.445Z,19.80
2022-10-07T12:38:57.549Z,19.80
2022-10-07T12:41:35.329Z,19.80
2022-10-07T12:44:17.818Z,20.20
2022-10-07T12:46:52.358Z,19.80
2022-10-07T12:49:37.790Z,19.70
2022-10-07T12:52:13.999Z,19.60
2022-10-07T12:55:15.887Z,19.70
2022-10-07T12:57:49.037Z,19.70
2022-10-07T13:00:24.597Z,19.90
2022-10-07T13:03:51.800Z,19.50
2022-10-07T13:06:28.490Z,19.50
2022-10-07T13:09:43.957Z,19.50
2022-10-07T13:12:29.380Z,19.60
2022-10-07T13:15:34.127Z,19.60
2022-10-07T13:18:37.305Z,19.60
2022-10-07T13:21:22.047Z,19.70
2022-10-07T13:23:55.761Z,19.70
2022-10-07T13:26:25.398Z,19.70
2022-10-07T13:28:56.124Z,19.70
2022-10-07T13:31:31.629Z,20.30
2022-10-07T13:34:01.859Z,20.20
2022-10-07T13:36:32.957Z,19.70
2022-10-07T13:39:20.537Z,20.00
2022-10-07T13:41:51.235Z,19.60
2022-10-07T13:44:21.339Z,19.60
2022-10-07T13:46:59.763Z,19.60
2022-10-07T13:49:35.786Z,19.60
2022-10-07T13:52:07.253Z,19.60
2022-10-07T13:54:34.904Z,19.90
2022-10-07T13:57:02.393Z,20.00
2022-10-07T13:59:31.204Z,19.70
2022-10-07T14:01:58.351Z,19.70
2022-10-07T14:04:28.635Z,19.70
2022-10-07T14:07:17.718Z,19.70
2022-10-07T14:09:59.716Z,19.80
2022-10-07T14:12:47.723Z,19.80
2022-10-07T14:15:23.282Z,19.80
2022-10-07T14:17:56.806Z,19.80
2022-10-07T14:20:52.537Z,19.70
2022-10-07T14:23:28.413Z,19.70
2022-10-07T14:26:06.585Z,19.80
2022-10-07T14:28:35.873Z,19.80
2022-10-07T14:31:27.369Z,19.80
2022-10-07T14:34:30.609Z,20.30
2022-10-07T14:37:03.133Z,19.90
2022-10-07T14:39:47.740Z,19.90
2022-10-07T14:42:19.431Z,19.90
2022-10-07T14:44:46.849Z,19.90
2022-10-07T14:47:20.983Z,19.90
2022-10-07T14:49:52.783Z,20.20
2022-10-07T14:52:29.709Z,19.90
2022-10-07T14:55:04.058Z,20.20
2022-10-07T14:57:31.172Z,20.70
2022-10-07T14:59:58.151Z,20.10
2022-10-07T15:02:25.102Z,20.30
2022-10-07T15:04:52.437Z,20.50
2022-10-07T15:07:19.443Z,20.80
2022-10-07T15:09:46.726Z,21.10
2022-10-07T15:12:16.080Z,21.30
2022-10-07T15:14:43.378Z,21.50
2022-10-07T15:17:12.145Z,21.60
2022-10-07T15:19:39.243Z,21.50
2022-10-07T15:22:06.351Z,21.60
2022-10-07T15:24:34.224Z,21.50
2022-10-07T15:27:01.374Z,21.30
2022-10-07T15:29:28.264Z,21.10
2022-10-07T15:31:55.218Z,20.90
2022-10-07T15:34:22.716Z,20.70
2022-10-07T15:36:50.252Z,20.50
2022-10-07T15:39:17.214Z,20.30
2022-10-07T15:41:44.491Z,20.30
2022-10-07T15:44:19.557Z,19.90
2022-10-07T15:46:48.421Z,20.10
2022-10-07T15:49:17.001Z,19.60
2022-10-07T15:51:46.602Z,19.70
2022-10-07T15:54:14.272Z,19.40
2022-10-07T15:56:42.709Z,19.30
2022-10-07T15:59:10.136Z,19.90
2022-10-07T16:01:37.517Z,18.90
2022-10-07T16:04:05.968Z,19.10
2022-10-07T16:06:35.314Z,18.70
2022-10-07T16:09:03.813Z,18.50
2022-10-07T16:11:33.421Z,18.40
2022-10-07T16:14:02.311Z,19.00
2022-10-07T16:16:31.393Z,18.10
2022-10-07T16:19:00.394Z,18.10
2022-10-07T16:21:33.074Z,17.80
2022-10-07T16:24:16.019Z,17.90
2022-10-07T16:26:44.506Z,17.60
2022-10-07T16:29:36.643Z,17.50
2022-10-07T16:32:05.065Z,18.30
2022-10-07T16:34:32.172Z,17.40
2022-10-07T16:36:59.261Z,17.20
2022-10-07T16:39:26.479Z,17.80
2022-10-07T16:41:54.312Z,17.10
2022-10-07T16:44:21.468Z,16.90
2022-10-07T16:46:48.856Z,17.30
2022-10-07T16:49:18.123Z,16.70
2022-10-07T16:51:46.397Z,16.70
2022-10-07T16:54:17.020Z,17.90
2022-10-07T16:56:48.071Z,16.50
2022-10-07T16:59:22.470Z,17.30
2022-10-07T17:01:56.032Z,16.30
2022-10-07T17:04:24.693Z,17.10
2022-10-07T17:06:52.317Z,16.20
2022-10-07T17:09:19.417Z,16.10
2022-10-07T17:11:46.713Z,17.40
2022-10-07T17:14:16.310Z,17.10
2022-10-07T17:16:51.676Z,17.50
2022-10-07T17:19:22.514Z,15.80
2022-10-07T17:21:50.777Z,15.80
2022-10-07T17:24:19.647Z,18.70
2022-10-07T17:26:47.307Z,17.10
2022-10-07T17:29:18.444Z,17.70
2022-10-07T17:31:52.950Z,15.60
2022-10-07T17:34:21.316Z,15.50
2022-10-07T17:36:49.414Z,15.50
2022-10-07T17:39:17.261Z,16.70
2022-10-07T17:41:44.197Z,15.60
2022-10-07T17:44:12.376Z,15.30
2022-10-07T17:46:40.774Z,15.30
2022-10-07T17:49:13.422Z,15.60
2022-10-07T17:51:43.107Z,15.10
2022-10-07T17:54:12.719Z,15.20
2022-10-07T17:56:39.770Z,16.40
2022-10-07T17:59:06.927Z,17.00
2022-10-07T18:01:35.002Z,14.90
2022-10-07T18:04:07.969Z,16.70
2022-10-07T18:06:37.842Z,16.20
2022-10-07T18:09:09.979Z,14.90
2022-10-07T18:11:55.636Z,15.40
2022-10-07T18:14:41.709Z,14.90
2022-10-07T18:17:10.554Z,14.90
2022-10-07T18:19:39.570Z,14.80
2022-10-07T18:22:06.527Z,14.90
2022-10-07T18:24:33.445Z,14.00
2022-10-07T18:27:01.835Z,14.90
2022-10-07T18:29:32.277Z,16.20
2022-10-07T18:32:00.594Z,16.40
2022-10-07T18:34:27.516Z,15.40
2022-10-07T18:36:56.997Z,15.80
2022-10-07T18:39:27.565Z,15.90
2022-10-07T18:41:55.107Z,15.20
2022-10-07T18:44:22.376Z,16.00
2022-10-07T18:46:49.241Z,15.00
2022-10-07T18:49:16.134Z,14.90
2022-10-07T18:51:43.650Z,15.40
2022-10-07T18:54:10.871Z,15.50
2022-10-07T18:56:41.054Z,15.00
2022-10-07T18:59:09.791Z,16.10
2022-10-07T19:01:37.579Z,15.60
2022-10-07T19:04:05.682Z,15.90
2022-10-07T19:06:43.049Z,15.60
2022-10-07T19:09:22.189Z,14.50
2022-10-07T19:11:49.972Z,15.40
2022-10-07T19:14:17.157Z,15.80
2022-10-07T19:16:48.938Z,14.50
2022-10-07T19:19:22.926Z,16.90
2022-10-07T19:21:54.953Z,14.40
2022-10-07T19:24:44.888Z,14.50
2022-10-07T19:27:11.777Z,14.90
2022-10-07T19:29:38.676Z,14.50
2022-10-07T19:32:08.495Z,15.80
2022-10-07T19:34:36.276Z,14.30
2022-10-07T19:37:03.631Z,14.30
2022-10-07T19:39:30.557Z,14.40
2022-10-07T19:41:57.429Z,14.30
2022-10-07T19:44:24.366Z,15.80
2022-10-07T19:46:54.174Z,14.20
2022-10-07T19:49:22.272Z,15.00
2022-10-07T19:51:49.183Z,14.10
2022-10-07T19:54:16.218Z,16.00
2022-10-07T19:56:45.091Z,14.90
2022-10-07T19:59:14.002Z,15.00
2022-10-07T20:01:44.259Z,15.30
2022-10-07T20:04:18.559Z,13.80
2022-10-07T20:06:45.799Z,14.40
2022-10-07T20:09:16.313Z,13.80
2022-10-07T20:11:43.579Z,15.90
2022-10-07T20:14:10.901Z,13.70
2022-10-07T20:16:39.117Z,15.00
2022-10-07T20:19:15.621Z,15.50
2022-10-07T20:21:42.561Z,14.70
2022-10-07T20:24:14.351Z,15.00
2022-10-07T20:26:42.418Z,13.40
2022-10-07T20:29:11.884Z,15.60
2022-10-07T20:31:41.037Z,14.10
2022-10-07T20:34:13.107Z,14.20
2022-10-07T20:36:41.333Z,14.30
2022-10-07T20:39:38.793Z,14.20
2022-10-07T20:42:22.060Z,13.10
2022-10-07T20:44:50.251Z,14.10
2022-10-07T20:47:18.715Z,14.00
2022-10-07T20:49:48.080Z,13.80
2022-10-07T20:52:21.788Z,15.30
2022-10-07T20:54:49.333Z,14.50
2022-10-07T20:57:21.344Z,15.00
2022-10-07T20:59:48.320Z,16.10
2022-10-07T21:02:18.602Z,15.50
2022-10-07T21:04:48.781Z,12.80
2022-10-07T21:07:17.553Z,15.50
2022-10-07T21:09:45.086Z,13.60
2022-10-07T21:12:15.100Z,13.50
2022-10-07T21:14:44.095Z,13.00
2022-10-07T21:17:11.931Z,12.60
2022-10-07T21:19:39.994Z,15.20
2022-10-07T21:22:07.891Z,12.60
2022-10-07T21:24:35.073Z,14.80
2022-10-07T21:27:04.123Z,13.20
2022-10-07T21:29:31.401Z,13.50
2022-10-07T21:32:00.002Z,15.20
2022-10-07T21:34:29.724Z,14.30
2022-10-07T21:36:57.679Z,12.50
2022-10-07T21:39:26.181Z,14.50
2022-10-07T21:41:53.536Z,13.70
2022-10-07T21:44:20.651Z,14.20
2022-10-07T21:46:47.627Z,13.70
2022-10-07T21:49:16.190Z,14.80
2022-10-07T21:51:43.561Z,13.30
2022-10-07T21:54:16.230Z,12.20
2022-10-07T21:56:46.062Z,15.00
2022-10-07T21:59:14.141Z,12.80
2022-10-07T22:01:42.610Z,12.00
2022-10-07T22:04:17.026Z,14.30
2022-10-07T22:07:03.017Z,12.00
2022-10-07T22:09:31.099Z,14.00
2022-10-07T22:11:58.466Z,12.00
2022-10-07T22:14:25.350Z,14.60
2022-10-07T22:16:52.239Z,11.90
2022-10-07T22:19:19.207Z,11.80
2022-10-07T22:21:46.240Z,12.80
2022-10-07T22:24:13.997Z,11.70
2022-10-07T22:26:46.043Z,12.40
2022-10-07T22:29:16.159Z,13.80
2022-10-07T22:31:43.697Z,11.60
2022-10-07T22:34:30.571Z,12.70
2022-10-07T22:36:59.930Z,13.90
2022-10-07T22:39:28.636Z,11.60
2022-10-07T22:41:56.452Z,13.70
2022-10-07T22:44:23.391Z,11.50
2022-10-07T22:46:50.261Z,11.50
2022-10-07T22:49:17.119Z,11.40
2022-10-07T22:51:44.018Z,12.60
2022-10-07T22:54:13.626Z,11.40
2022-10-07T22:56:40.557Z,11.40
2022-10-07T22:59:08.615Z,12.30
2022-10-07T23:01:35.842Z,12.10
2022-10-07T23:04:03.622Z,11.30
2022-10-07T23:06:34.405Z,11.20
2022-10-07T23:09:02.876Z,14.00
2022-10-07T23:11:30.765Z,12.10
2022-10-07T23:13:57.675Z,14.10
2022-10-07T23:16:29.740Z,11.10
2022-10-07T23:18:58.501Z,12.60
2022-10-07T23:21:28.838Z,11.00
2022-10-07T23:24:06.058Z,11.00
2022-10-07T23:26:34.983Z,11.00
2022-10-07T23:29:03.214Z,11.00
2022-10-07T23:31:32.252Z,11.00
2022-10-07T23:34:01.684Z,11.00
2022-10-07T23:36:29.405Z,13.70
2022-10-07T23:38:58.391Z,13.70
2022-10-07T23:41:28.674Z,10.90
2022-10-07T23:43:58.695Z,13.00
2022-10-07T23:46:27.125Z,10.70
2022-10-07T23:48:54.918Z,10.80
2022-10-07T23:51:26.057Z,10.70
2022-10-07T23:53:52.946Z,13.00
2022-10-07T23:56:20.001Z,10.70
2022-10-07T23:58:47.145Z,11.70
